TimeEST,TemperatureF,Dew PointF,Humidity,Sea Level PressureIn,VisibilityMPH,Wind Direction,Wind SpeedMPH,Gust SpeedMPH,PrecipitationIn,Events,Conditions,WindDirDegrees,DateUTC
12:00 AM,30.0,23.0,75,30.23,-9999.0,Calm,Calm,-,N/A,,Mostly Cloudy,0,2013-01-06 05:00:00
1:00 AM,30.9,23.0,72,30.24,-9999.0,Calm,Calm,-,N/A,,Overcast,0,2013-01-06 06:00:00
2:00 AM,32.0,24.1,73,30.22,-9999.0,Calm,Calm,-,N/A,,Overcast,0,2013-01-06 07:00:00
3:00 AM,33.8,28.4,81,30.20,-9999.0,SSW,6.9,-,N/A,Snow,Snow,200,2013-01-06 08:00:00
3:06 AM,33.1,30.9,92,30.19,-9999.0,SSW,6.9,-,N/A,Snow,Snow,200,2013-01-06 08:06:00
3:14 AM,33.8,30.2,87,30.19,-9999.0,SSW,6.9,-,N/A,Snow,Snow,200,2013-01-06 08:14:00
3:30 AM,33.8,32.0,93,30.18,-9999.0,SSW,5.8,-,N/A,Snow,Snow,210,2013-01-06 08:30:00
4:00 AM,32.0,32.0,100,30.16,-9999.0,Calm,Calm,-,N/A,Snow,Snow,0,2013-01-06 09:00:00
5:00 AM,32.0,32.0,100,30.14,-9999.0,Calm,Calm,-,N/A,Snow,Light Snow,0,2013-01-06 10:00:00
5:22 AM,33.8,32.0,93,30.13,-9999.0,Calm,Calm,-,N/A,,Overcast,0,2013-01-06 10:22:00
6:00 AM,32.0,32.0,100,30.13,-9999.0,South,3.5,-,N/A,,Overcast,170,2013-01-06 11:00:00
7:00 AM,32.0,32.0,100,30.12,-9999.0,Calm,Calm,-,N/A,,Overcast,0,2013-01-06 12:00:00
8:00 AM,32.0,30.9,96,30.13,-9999.0,WNW,4.6,-,N/A,,Mostly Cloudy,290,2013-01-06 13:00:00
10:00 AM,36.0,33.1,89,30.11,-9999.0,West,4.6,-,N/A,,Clear,270,2013-01-06 15:00:00
11:00 AM,39.0,34.0,82,30.09,-9999.0,West,6.9,-,N/A,,Clear,270,2013-01-06 16:00:00
12:00 PM,42.1,33.1,70,30.05,-9999.0,WSW,8.1,-,N/A,,Clear,250,2013-01-06 17:00:00
1:00 PM,45.0,30.9,58,30.03,-9999.0,West,10.4,-,N/A,,Clear,270,2013-01-06 18:00:00
2:00 PM,46.0,30.0,54,30.00,-9999.0,WNW,8.1,-,N/A,,Clear,290,2013-01-06 19:00:00
3:00 PM,46.9,28.0,48,29.99,-9999.0,West,10.4,-,N/A,,Clear,260,2013-01-06 20:00:00
4:00 PM,45.0,28.0,52,29.99,-9999.0,West,10.4,-,N/A,,Clear,260,2013-01-06 21:00:00
5:00 PM,39.0,28.0,65,30.01,-9999.0,Calm,Calm,-,N/A,,Clear,0,2013-01-06 22:00:00
6:00 PM,32.0,27.0,82,30.02,-9999.0,Calm,Calm,-,N/A,,Clear,0,2013-01-06 23:00:00
7:00 PM,28.9,25.0,85,30.04,-9999.0,Calm,Calm,-,N/A,,Clear,0,2013-01-07 00:00:00
8:00 PM,30.0,27.0,88,30.04,-9999.0,Calm,Calm,-,N/A,,Overcast,0,2013-01-07 01:00:00
9:00 PM,32.0,28.9,88,30.04,-9999.0,Calm,Calm,-,N/A,,Overcast,0,2013-01-07 02:00:00
10:00 PM,34.0,28.9,82,30.05,-9999.0,Calm,Calm,-,N/A,,Overcast,0,2013-01-07 03:00:00
11:00 PM,35.1,28.9,78,30.05,-9999.0,West,4.6,-,N/A,,Overcast,260,2013-01-07 04:00:00